sensor_id;sensor_type;location;lat;lon;timestamp;P1;durP1;ratioP1;P2;durP2;ratioP2
47589;SDS011;33316;52.298;9.056;2022-08-06T00:02:10;0.60;;;0.22;;
47589;SDS011;33316;52.298;9.056;2022-08-06T00:04:35;1.33;;;0.30;;
47589;SDS011;33316;52.298;9.056;2022-08-06T00:07:01;2.00;;;0.20;;
47589;SDS011;33316;52.298;9.056;2022-08-06T00:09:26;0.55;;;0.20;;
47589;SDS011;33316;52.298;9.056;2022-08-06T00:12:01;0.45;;;0.30;;
47589;SDS011;33316;52.298;9.056;2022-08-06T00:14:28;0.15;;;0.15;;
47589;SDS011;33316;52.298;9.056;2022-08-06T00:16:55;0.20;;;0.20;;
47589;SDS011;33316;52.298;9.056;2022-08-06T00:19:20;0.82;;;0.30;;
47589;SDS011;33316;52.298;9.056;2022-08-06T00:21:47;1.25;;;0.20;;
47589;SDS011;33316;52.298;9.056;2022-08-06T00:24:13;0.40;;;0.20;;
47589;SDS011;33316;52.298;9.056;2022-08-06T00:26:39;0.50;;;0.20;;
47589;SDS011;33316;52.298;9.056;2022-08-06T00:29:05;0.20;;;0.20;;
47589;SDS011;33316;52.298;9.056;2022-08-06T00:31:31;0.25;;;0.13;;
47589;SDS011;33316;52.298;9.056;2022-08-06T00:33:56;1.20;;;0.30;;
47589;SDS011;33316;52.298;9.056;2022-08-06T00:36:25;0.32;;;0.20;;
47589;SDS011;33316;52.298;9.056;2022-08-06T00:38:52;0.70;;;0.30;;
47589;SDS011;33316;52.298;9.056;2022-08-06T00:41:18;2.50;;;0.30;;
47589;SDS011;33316;52.298;9.056;2022-08-06T00:43:44;1.05;;;0.30;;
47589;SDS011;33316;52.298;9.056;2022-08-06T00:46:10;0.60;;;0.32;;
47589;SDS011;33316;52.298;9.056;2022-08-06T00:48:36;0.88;;;0.30;;
47589;SDS011;33316;52.298;9.056;2022-08-06T00:51:01;0.63;;;0.30;;
47589;SDS011;33316;52.298;9.056;2022-08-06T00:53:27;0.55;;;0.30;;
47589;SDS011;33316;52.298;9.056;2022-08-06T00:55:53;0.45;;;0.25;;
47589;SDS011;33316;52.298;9.056;2022-08-06T00:58:19;0.80;;;0.30;;
47589;SDS011;33316;52.298;9.056;2022-08-06T01:00:44;1.00;;;0.30;;
47589;SDS011;33316;52.298;9.056;2022-08-06T01:03:10;0.38;;;0.28;;
47589;SDS011;33316;52.298;9.056;2022-08-06T01:05:36;0.57;;;0.32;;
47589;SDS011;33316;52.298;9.056;2022-08-06T01:08:02;0.93;;;0.40;;
47589;SDS011;33316;52.298;9.056;2022-08-06T01:10:29;0.80;;;0.32;;
47589;SDS011;33316;52.298;9.056;2022-08-06T01:12:54;0.57;;;0.35;;
47589;SDS011;33316;52.298;9.056;2022-08-06T01:15:20;1.55;;;0.30;;
47589;SDS011;33316;52.298;9.056;2022-08-06T01:17:52;0.30;;;0.20;;
47589;SDS011;33316;52.298;9.056;2022-08-06T01:23:02;0.57;;;0.30;;
47589;SDS011;33316;52.298;9.056;2022-08-06T01:28:42;0.60;;;0.40;;
47589;SDS011;33316;52.298;9.056;2022-08-06T01:31:13;1.10;;;0.30;;
47589;SDS011;33316;52.298;9.056;2022-08-06T01:33:45;0.50;;;0.30;;
47589;SDS011;33316;52.298;9.056;2022-08-06T01:36:31;0.63;;;0.30;;
47589;SDS011;33316;52.298;9.056;2022-08-06T01:39:02;0.65;;;0.47;;
47589;SDS011;33316;52.298;9.056;2022-08-06T01:41:40;0.85;;;0.40;;
47589;SDS011;33316;52.298;9.056;2022-08-06T01:44:14;2.33;;;0.40;;
47589;SDS011;33316;52.298;9.056;2022-08-06T01:46:47;0.70;;;0.30;;
47589;SDS011;33316;52.298;9.056;2022-08-06T01:49:18;0.65;;;0.20;;
47589;SDS011;33316;52.298;9.056;2022-08-06T01:51:48;0.20;;;0.20;;
47589;SDS011;33316;52.298;9.056;2022-08-06T01:54:15;0.40;;;0.20;;
47589;SDS011;33316;52.298;9.056;2022-08-06T01:56:43;0.93;;;0.20;;
47589;SDS011;33316;52.298;9.056;2022-08-06T01:59:13;1.13;;;0.30;;
47589;SDS011;33316;52.298;9.056;2022-08-06T02:01:41;0.75;;;0.20;;
47589;SDS011;33316;52.298;9.056;2022-08-06T02:04:08;1.17;;;0.30;;
47589;SDS011;33316;52.298;9.056;2022-08-06T02:06:37;1.83;;;0.35;;
47589;SDS011;33316;52.298;9.056;2022-08-06T02:09:09;0.45;;;0.20;;
47589;SDS011;33316;52.298;9.056;2022-08-06T02:11:39;0.80;;;0.30;;
47589;SDS011;33316;52.298;9.056;2022-08-06T02:14:06;0.55;;;0.20;;
47589;SDS011;33316;52.298;9.056;2022-08-06T02:16:35;0.40;;;0.25;;
47589;SDS011;33316;52.298;9.056;2022-08-06T02:19:04;0.25;;;0.20;;
47589;SDS011;33316;52.298;9.056;2022-08-06T02:21:32;1.92;;;0.30;;
47589;SDS011;33316;52.298;9.056;2022-08-06T02:24:03;0.52;;;0.20;;
47589;SDS011;33316;52.298;9.056;2022-08-06T02:26:31;0.30;;;0.20;;
47589;SDS011;33316;52.298;9.056;2022-08-06T02:28:59;1.38;;;0.60;;
47589;SDS011;33316;52.298;9.056;2022-08-06T02:31:27;0.43;;;0.30;;
47589;SDS011;33316;52.298;9.056;2022-08-06T02:33:53;0.47;;;0.40;;
47589;SDS011;33316;52.298;9.056;2022-08-06T02:36:20;2.28;;;0.30;;
47589;SDS011;33316;52.298;9.056;2022-08-06T02:39:14;1.67;;;0.30;;
47589;SDS011;33316;52.298;9.056;2022-08-06T02:41:57;1.85;;;0.52;;
47589;SDS011;33316;52.298;9.056;2022-08-06T02:50:11;1.70;;;0.40;;
47589;SDS011;33316;52.298;9.056;2022-08-06T02:52:41;0.80;;;0.40;;
47589;SDS011;33316;52.298;9.056;2022-08-06T02:55:19;1.02;;;0.47;;
47589;SDS011;33316;52.298;9.056;2022-08-06T02:57:54;0.30;;;0.25;;
47589;SDS011;33316;52.298;9.056;2022-08-06T03:00:23;1.00;;;0.40;;
47589;SDS011;33316;52.298;9.056;2022-08-06T03:02:53;1.58;;;0.30;;
47589;SDS011;33316;52.298;9.056;2022-08-06T03:07:48;0.50;;;0.40;;
47589;SDS011;33316;52.298;9.056;2022-08-06T03:10:20;0.65;;;0.40;;
47589;SDS011;33316;52.298;9.056;2022-08-06T03:12:46;0.85;;;0.40;;
47589;SDS011;33316;52.298;9.056;2022-08-06T03:15:13;0.80;;;0.32;;
47589;SDS011;33316;52.298;9.056;2022-08-06T03:17:42;0.52;;;0.32;;
47589;SDS011;33316;52.298;9.056;2022-08-06T03:20:09;0.35;;;0.35;;
47589;SDS011;33316;52.298;9.056;2022-08-06T03:22:36;1.88;;;0.40;;
47589;SDS011;33316;52.298;9.056;2022-08-06T03:25:03;0.65;;;0.30;;
47589;SDS011;33316;52.298;9.056;2022-08-06T03:27:31;0.40;;;0.40;;
47589;SDS011;33316;52.298;9.056;2022-08-06T03:29:57;0.50;;;0.32;;
47589;SDS011;33316;52.298;9.056;2022-08-06T03:32:24;0.30;;;0.30;;
47589;SDS011;33316;52.298;9.056;2022-08-06T03:34:50;2.70;;;0.38;;
47589;SDS011;33316;52.298;9.056;2022-08-06T03:37:17;1.40;;;0.40;;
47589;SDS011;33316;52.298;9.056;2022-08-06T03:39:44;0.35;;;0.25;;
47589;SDS011;33316;52.298;9.056;2022-08-06T03:42:11;1.13;;;0.40;;
47589;SDS011;33316;52.298;9.056;2022-08-06T03:44:37;0.95;;;0.60;;
47589;SDS011;33316;52.298;9.056;2022-08-06T03:47:07;0.82;;;0.40;;
47589;SDS011;33316;52.298;9.056;2022-08-06T03:49:41;0.68;;;0.30;;
47589;SDS011;33316;52.298;9.056;2022-08-06T03:52:15;0.93;;;0.38;;
47589;SDS011;33316;52.298;9.056;2022-08-06T03:54:46;0.73;;;0.30;;
47589;SDS011;33316;52.298;9.056;2022-08-06T03:57:15;0.52;;;0.40;;
47589;SDS011;33316;52.298;9.056;2022-08-06T03:59:44;0.50;;;0.40;;
47589;SDS011;33316;52.298;9.056;2022-08-06T04:02:13;0.40;;;0.30;;
47589;SDS011;33316;52.298;9.056;2022-08-06T04:04:40;0.40;;;0.30;;
47589;SDS011;33316;52.298;9.056;2022-08-06T04:07:07;1.25;;;0.40;;
47589;SDS011;33316;52.298;9.056;2022-08-06T04:09:34;0.40;;;0.30;;
47589;SDS011;33316;52.298;9.056;2022-08-06T04:12:01;0.50;;;0.32;;
47589;SDS011;33316;52.298;9.056;2022-08-06T04:14:28;0.32;;;0.30;;
47589;SDS011;33316;52.298;9.056;2022-08-06T04:16:55;0.50;;;0.30;;
47589;SDS011;33316;52.298;9.056;2022-08-06T04:19:21;1.63;;;0.30;;
47589;SDS011;33316;52.298;9.056;2022-08-06T04:21:48;0.43;;;0.20;;
47589;SDS011;33316;52.298;9.056;2022-08-06T04:24:14;1.63;;;0.30;;
47589;SDS011;33316;52.298;9.056;2022-08-06T04:26:41;0.57;;;0.30;;
47589;SDS011;33316;52.298;9.056;2022-08-06T04:29:09;1.67;;;0.40;;
47589;SDS011;33316;52.298;9.056;2022-08-06T04:31:37;0.73;;;0.30;;
47589;SDS011;33316;52.298;9.056;2022-08-06T04:34:04;0.40;;;0.30;;
47589;SDS011;33316;52.298;9.056;2022-08-06T04:36:30;2.17;;;0.30;;
47589;SDS011;33316;52.298;9.056;2022-08-06T04:38:56;1.23;;;0.38;;
47589;SDS011;33316;52.298;9.056;2022-08-06T04:41:22;0.70;;;0.30;;
47589;SDS011;33316;52.298;9.056;2022-08-06T04:43:48;0.50;;;0.40;;
47589;SDS011;33316;52.298;9.056;2022-08-06T04:46:14;0.82;;;0.30;;
47589;SDS011;33316;52.298;9.056;2022-08-06T04:48:41;0.60;;;0.50;;
47589;SDS011;33316;52.298;9.056;2022-08-06T04:51:06;1.17;;;0.30;;
47589;SDS011;33316;52.298;9.056;2022-08-06T04:53:39;0.30;;;0.30;;
47589;SDS011;33316;52.298;9.056;2022-08-06T04:56:06;0.57;;;0.40;;
47589;SDS011;33316;52.298;9.056;2022-08-06T04:58:32;0.90;;;0.40;;
47589;SDS011;33316;52.298;9.056;2022-08-06T05:00:59;0.35;;;0.32;;
47589;SDS011;33316;52.298;9.056;2022-08-06T05:03:25;0.38;;;0.35;;
47589;SDS011;33316;52.298;9.056;2022-08-06T05:05:53;0.63;;;0.40;;
47589;SDS011;33316;52.298;9.056;2022-08-06T05:08:40;0.38;;;0.38;;
47589;SDS011;33316;52.298;9.056;2022-08-06T05:11:12;0.43;;;0.40;;
47589;SDS011;33316;52.298;9.056;2022-08-06T05:13:43;0.70;;;0.40;;
47589;SDS011;33316;52.298;9.056;2022-08-06T05:16:11;1.92;;;0.40;;
47589;SDS011;33316;52.298;9.056;2022-08-06T05:18:43;0.55;;;0.40;;
47589;SDS011;33316;52.298;9.056;2022-08-06T05:21:17;0.70;;;0.50;;
47589;SDS011;33316;52.298;9.056;2022-08-06T05:23:47;0.60;;;0.30;;
47589;SDS011;33316;52.298;9.056;2022-08-06T05:26:14;4.65;;;0.50;;
47589;SDS011;33316;52.298;9.056;2022-08-06T05:28:41;0.47;;;0.45;;
47589;SDS011;33316;52.298;9.056;2022-08-06T05:31:07;0.43;;;0.32;;
47589;SDS011;33316;52.298;9.056;2022-08-06T05:33:35;0.95;;;0.50;;
47589;SDS011;33316;52.298;9.056;2022-08-06T05:36:04;1.58;;;0.45;;
47589;SDS011;33316;52.298;9.056;2022-08-06T05:38:34;2.15;;;0.47;;
47589;SDS011;33316;52.298;9.056;2022-08-06T05:41:03;0.52;;;0.40;;
47589;SDS011;33316;52.298;9.056;2022-08-06T05:43:30;0.70;;;0.40;;
47589;SDS011;33316;52.298;9.056;2022-08-06T05:45:57;0.40;;;0.30;;
47589;SDS011;33316;52.298;9.056;2022-08-06T05:48:26;0.43;;;0.30;;
47589;SDS011;33316;52.298;9.056;2022-08-06T05:51:00;0.80;;;0.47;;
47589;SDS011;33316;52.298;9.056;2022-08-06T05:53:47;2.50;;;0.80;;
47589;SDS011;33316;52.298;9.056;2022-08-06T05:56:17;0.50;;;0.30;;
47589;SDS011;33316;52.298;9.056;2022-08-06T05:58:49;0.60;;;0.38;;
47589;SDS011;33316;52.298;9.056;2022-08-06T06:01:19;0.45;;;0.32;;
47589;SDS011;33316;52.298;9.056;2022-08-06T06:03:45;1.00;;;0.57;;
47589;SDS011;33316;52.298;9.056;2022-08-06T06:06:12;0.40;;;0.40;;
47589;SDS011;33316;52.298;9.056;2022-08-06T06:08:37;0.90;;;0.50;;
47589;SDS011;33316;52.298;9.056;2022-08-06T06:11:04;1.35;;;0.60;;
47589;SDS011;33316;52.298;9.056;2022-08-06T06:13:32;0.88;;;0.40;;
47589;SDS011;33316;52.298;9.056;2022-08-06T06:16:11;1.13;;;0.45;;
47589;SDS011;33316;52.298;9.056;2022-08-06T06:23:51;1.55;;;0.50;;
47589;SDS011;33316;52.298;9.056;2022-08-06T06:34:44;1.10;;;0.30;;
47589;SDS011;33316;52.298;9.056;2022-08-06T06:40:05;0.70;;;0.50;;
47589;SDS011;33316;52.298;9.056;2022-08-06T06:42:47;0.50;;;0.40;;
47589;SDS011;33316;52.298;9.056;2022-08-06T06:45:21;1.98;;;0.60;;
47589;SDS011;33316;52.298;9.056;2022-08-06T06:47:58;1.45;;;0.50;;
47589;SDS011;33316;52.298;9.056;2022-08-06T06:50:44;1.63;;;0.60;;
47589;SDS011;33316;52.298;9.056;2022-08-06T06:53:12;2.45;;;0.50;;
47589;SDS011;33316;52.298;9.056;2022-08-06T06:55:43;2.80;;;0.90;;
47589;SDS011;33316;52.298;9.056;2022-08-06T07:00:39;0.77;;;0.50;;
47589;SDS011;33316;52.298;9.056;2022-08-06T07:03:06;1.60;;;0.30;;
47589;SDS011;33316;52.298;9.056;2022-08-06T07:05:33;0.30;;;0.30;;
47589;SDS011;33316;52.298;9.056;2022-08-06T07:08:01;0.82;;;0.30;;
47589;SDS011;33316;52.298;9.056;2022-08-06T07:10:29;0.93;;;0.30;;
47589;SDS011;33316;52.298;9.056;2022-08-06T07:12:56;0.47;;;0.38;;
47589;SDS011;33316;52.298;9.056;2022-08-06T07:15:23;1.40;;;0.30;;
47589;SDS011;33316;52.298;9.056;2022-08-06T07:17:49;1.88;;;0.30;;
47589;SDS011;33316;52.298;9.056;2022-08-06T07:20:18;1.98;;;0.32;;
47589;SDS011;33316;52.298;9.056;2022-08-06T07:22:49;1.05;;;0.50;;
47589;SDS011;33316;52.298;9.056;2022-08-06T07:25:17;0.98;;;0.50;;
47589;SDS011;33316;52.298;9.056;2022-08-06T07:27:45;2.25;;;0.43;;
47589;SDS011;33316;52.298;9.056;2022-08-06T07:30:14;1.63;;;0.25;;
47589;SDS011;33316;52.298;9.056;2022-08-06T07:32:41;1.25;;;0.30;;
47589;SDS011;33316;52.298;9.056;2022-08-06T07:35:08;1.98;;;0.40;;
47589;SDS011;33316;52.298;9.056;2022-08-06T07:37:35;1.42;;;0.38;;
47589;SDS011;33316;52.298;9.056;2022-08-06T07:40:02;0.30;;;0.10;;
47589;SDS011;33316;52.298;9.056;2022-08-06T07:42:30;1.63;;;0.10;;
47589;SDS011;33316;52.298;9.056;2022-08-06T07:44:57;0.70;;;0.20;;
47589;SDS011;33316;52.298;9.056;2022-08-06T07:47:35;0.63;;;0.22;;
47589;SDS011;33316;52.298;9.056;2022-08-06T07:50:04;0.75;;;0.10;;
47589;SDS011;33316;52.298;9.056;2022-08-06T07:52:31;0.25;;;0.17;;
47589;SDS011;33316;52.298;9.056;2022-08-06T07:54:57;1.67;;;0.20;;
47589;SDS011;33316;52.298;9.056;2022-08-06T07:57:24;2.40;;;0.20;;
47589;SDS011;33316;52.298;9.056;2022-08-06T07:59:50;0.45;;;0.20;;
47589;SDS011;33316;52.298;9.056;2022-08-06T08:02:17;0.25;;;0.17;;
47589;SDS011;33316;52.298;9.056;2022-08-06T08:04:43;2.25;;;0.90;;
47589;SDS011;33316;52.298;9.056;2022-08-06T08:07:28;2.10;;;0.40;;
47589;SDS011;33316;52.298;9.056;2022-08-06T08:09:56;1.80;;;0.20;;
47589;SDS011;33316;52.298;9.056;2022-08-06T08:12:24;1.70;;;0.20;;
47589;SDS011;33316;52.298;9.056;2022-08-06T08:14:51;1.02;;;0.20;;
47589;SDS011;33316;52.298;9.056;2022-08-06T08:17:17;0.47;;;0.20;;
47589;SDS011;33316;52.298;9.056;2022-08-06T08:19:43;0.75;;;0.10;;
47589;SDS011;33316;52.298;9.056;2022-08-06T08:22:09;1.98;;;0.20;;
47589;SDS011;33316;52.298;9.056;2022-08-06T08:24:40;0.52;;;0.10;;
47589;SDS011;33316;52.298;9.056;2022-08-06T08:27:07;1.45;;;0.20;;
47589;SDS011;33316;52.298;9.056;2022-08-06T08:29:36;1.40;;;0.20;;
47589;SDS011;33316;52.298;9.056;2022-08-06T08:32:03;0.63;;;0.10;;
47589;SDS011;33316;52.298;9.056;2022-08-06T08:34:29;0.57;;;0.15;;
47589;SDS011;33316;52.298;9.056;2022-08-06T08:36:56;2.03;;;0.10;;
47589;SDS011;33316;52.298;9.056;2022-08-06T08:39:21;0.55;;;0.20;;
47589;SDS011;33316;52.298;9.056;2022-08-06T08:41:51;0.20;;;0.10;;
47589;SDS011;33316;52.298;9.056;2022-08-06T08:44:24;0.15;;;0.10;;
47589;SDS011;33316;52.298;9.056;2022-08-06T08:46:52;0.65;;;0.10;;
47589;SDS011;33316;52.298;9.056;2022-08-06T08:49:32;0.10;;;0.00;;
47589;SDS011;33316;52.298;9.056;2022-08-06T08:52:06;1.05;;;0.15;;
47589;SDS011;33316;52.298;9.056;2022-08-06T08:54:33;0.10;;;0.05;;
47589;SDS011;33316;52.298;9.056;2022-08-06T08:57:04;2.42;;;0.80;;
47589;SDS011;33316;52.298;9.056;2022-08-06T08:59:30;2.05;;;0.52;;
47589;SDS011;33316;52.298;9.056;2022-08-06T09:01:57;0.52;;;0.15;;
47589;SDS011;33316;52.298;9.056;2022-08-06T09:04:23;0.47;;;0.10;;
47589;SDS011;33316;52.298;9.056;2022-08-06T09:06:50;0.57;;;0.00;;
47589;SDS011;33316;52.298;9.056;2022-08-06T09:09:16;0.28;;;0.08;;
47589;SDS011;33316;52.298;9.056;2022-08-06T09:11:42;0.10;;;0.00;;
47589;SDS011;33316;52.298;9.056;2022-08-06T09:14:08;0.45;;;0.10;;
47589;SDS011;33316;52.298;9.056;2022-08-06T09:16:34;0.20;;;0.03;;
47589;SDS011;33316;52.298;9.056;2022-08-06T09:19:02;0.43;;;0.03;;
47589;SDS011;33316;52.298;9.056;2022-08-06T09:21:29;0.10;;;0.10;;
47589;SDS011;33316;52.298;9.056;2022-08-06T09:23:55;1.65;;;0.10;;
47589;SDS011;33316;52.298;9.056;2022-08-06T09:26:21;0.05;;;0.00;;
47589;SDS011;33316;52.298;9.056;2022-08-06T09:28:47;1.73;;;0.05;;
47589;SDS011;33316;52.298;9.056;2022-08-06T09:33:41;0.00;;;0.00;;
47589;SDS011;33316;52.298;9.056;2022-08-06T09:36:27;1.23;;;0.10;;
47589;SDS011;33316;52.298;9.056;2022-08-06T09:39:05;0.10;;;0.00;;
47589;SDS011;33316;52.298;9.056;2022-08-06T09:41:30;0.03;;;0.00;;
47589;SDS011;33316;52.298;9.056;2022-08-06T09:43:56;0.10;;;0.00;;
47589;SDS011;33316;52.298;9.056;2022-08-06T09:46:36;0.55;;;0.30;;
47589;SDS011;33316;52.298;9.056;2022-08-06T09:49:07;0.55;;;0.10;;
47589;SDS011;33316;52.298;9.056;2022-08-06T09:51:34;1.48;;;0.10;;
47589;SDS011;33316;52.298;9.056;2022-08-06T09:54:00;0.13;;;0.08;;
47589;SDS011;33316;52.298;9.056;2022-08-06T09:56:28;2.83;;;0.10;;
47589;SDS011;33316;52.298;9.056;2022-08-06T09:58:57;0.73;;;0.10;;
47589;SDS011;33316;52.298;9.056;2022-08-06T10:01:24;0.15;;;0.10;;
47589;SDS011;33316;52.298;9.056;2022-08-06T10:03:51;1.60;;;0.15;;
47589;SDS011;33316;52.298;9.056;2022-08-06T10:06:19;0.00;;;0.00;;
47589;SDS011;33316;52.298;9.056;2022-08-06T10:08:46;0.00;;;0.00;;
47589;SDS011;33316;52.298;9.056;2022-08-06T10:11:12;0.17;;;0.10;;
47589;SDS011;33316;52.298;9.056;2022-08-06T10:13:38;0.40;;;0.10;;
47589;SDS011;33316;52.298;9.056;2022-08-06T10:16:14;0.32;;;0.10;;
47589;SDS011;33316;52.298;9.056;2022-08-06T10:18:41;0.00;;;0.00;;
47589;SDS011;33316;52.298;9.056;2022-08-06T10:23:36;0.90;;;0.20;;
47589;SDS011;33316;52.298;9.056;2022-08-06T10:26:04;0.43;;;0.20;;
47589;SDS011;33316;52.298;9.056;2022-08-06T10:28:32;0.20;;;0.10;;
47589;SDS011;33316;52.298;9.056;2022-08-06T10:31:01;1.55;;;0.20;;
47589;SDS011;33316;52.298;9.056;2022-08-06T10:33:44;0.00;;;0.00;;
47589;SDS011;33316;52.298;9.056;2022-08-06T10:36:31;1.55;;;0.10;;
47589;SDS011;33316;52.298;9.056;2022-08-06T10:39:05;0.00;;;0.00;;
47589;SDS011;33316;52.298;9.056;2022-08-06T10:41:32;0.68;;;0.08;;
47589;SDS011;33316;52.298;9.056;2022-08-06T10:44:00;0.30;;;0.10;;
47589;SDS011;33316;52.298;9.056;2022-08-06T10:46:27;0.50;;;0.10;;
47589;SDS011;33316;52.298;9.056;2022-08-06T10:48:53;0.10;;;0.03;;
47589;SDS011;33316;52.298;9.056;2022-08-06T10:51:19;0.28;;;0.00;;
47589;SDS011;33316;52.298;9.056;2022-08-06T10:53:45;0.43;;;0.10;;
47589;SDS011;33316;52.298;9.056;2022-08-06T10:56:12;0.20;;;0.00;;
47589;SDS011;33316;52.298;9.056;2022-08-06T10:58:42;0.10;;;0.10;;
47589;SDS011;33316;52.298;9.056;2022-08-06T11:01:17;0.60;;;0.10;;
47589;SDS011;33316;52.298;9.056;2022-08-06T11:04:18;0.08;;;0.00;;
47589;SDS011;33316;52.298;9.056;2022-08-06T11:15:10;0.08;;;0.00;;
47589;SDS011;33316;52.298;9.056;2022-08-06T11:17:46;0.28;;;0.10;;
47589;SDS011;33316;52.298;9.056;2022-08-06T11:22:57;0.20;;;0.10;;
47589;SDS011;33316;52.298;9.056;2022-08-06T11:28:16;0.03;;;0.00;;
47589;SDS011;33316;52.298;9.056;2022-08-06T11:33:11;0.90;;;0.08;;
47589;SDS011;33316;52.298;9.056;2022-08-06T11:35:39;0.55;;;0.10;;
47589;SDS011;33316;52.298;9.056;2022-08-06T11:38:08;0.00;;;0.00;;
47589;SDS011;33316;52.298;9.056;2022-08-06T11:51:56;0.20;;;0.00;;
47589;SDS011;33316;52.298;9.056;2022-08-06T11:54:26;0.82;;;0.00;;
47589;SDS011;33316;52.298;9.056;2022-08-06T11:59:30;1.65;;;0.10;;
47589;SDS011;33316;52.298;9.056;2022-08-06T12:01:58;0.20;;;0.00;;
47589;SDS011;33316;52.298;9.056;2022-08-06T12:09:58;0.77;;;0.10;;
47589;SDS011;33316;52.298;9.056;2022-08-06T12:14:54;0.22;;;0.00;;
47589;SDS011;33316;52.298;9.056;2022-08-06T12:17:21;0.00;;;0.00;;
47589;SDS011;33316;52.298;9.056;2022-08-06T12:19:49;0.30;;;0.10;;
47589;SDS011;33316;52.298;9.056;2022-08-06T12:22:18;0.30;;;0.10;;
47589;SDS011;33316;52.298;9.056;2022-08-06T12:24:47;0.00;;;0.00;;
47589;SDS011;33316;52.298;9.056;2022-08-06T12:27:15;0.20;;;0.00;;
47589;SDS011;33316;52.298;9.056;2022-08-06T12:29:41;0.70;;;0.10;;
47589;SDS011;33316;52.298;9.056;2022-08-06T12:32:21;0.20;;;0.00;;
47589;SDS011;33316;52.298;9.056;2022-08-06T12:34:48;0.65;;;0.10;;
47589;SDS011;33316;52.298;9.056;2022-08-06T12:37:14;0.05;;;0.00;;
47589;SDS011;33316;52.298;9.056;2022-08-06T12:39:41;0.17;;;0.00;;
47589;SDS011;33316;52.298;9.056;2022-08-06T12:42:26;1.33;;;0.10;;
47589;SDS011;33316;52.298;9.056;2022-08-06T12:44:52;0.57;;;0.00;;
47589;SDS011;33316;52.298;9.056;2022-08-06T12:47:18;0.40;;;0.10;;
47589;SDS011;33316;52.298;9.056;2022-08-06T12:49:45;0.35;;;0.00;;
47589;SDS011;33316;52.298;9.056;2022-08-06T12:52:13;0.13;;;0.05;;
47589;SDS011;33316;52.298;9.056;2022-08-06T12:54:43;0.38;;;0.00;;
47589;SDS011;33316;52.298;9.056;2022-08-06T12:57:19;0.10;;;0.00;;
47589;SDS011;33316;52.298;9.056;2022-08-06T12:59:49;0.68;;;0.13;;
47589;SDS011;33316;52.298;9.056;2022-08-06T13:02:16;0.43;;;0.00;;
47589;SDS011;33316;52.298;9.056;2022-08-06T13:04:46;0.00;;;0.00;;
47589;SDS011;33316;52.298;9.056;2022-08-06T13:07:15;0.70;;;0.17;;
47589;SDS011;33316;52.298;9.056;2022-08-06T13:09:42;1.60;;;0.70;;
47589;SDS011;33316;52.298;9.056;2022-08-06T13:12:16;0.90;;;0.35;;
47589;SDS011;33316;52.298;9.056;2022-08-06T13:14:50;0.35;;;0.10;;
47589;SDS011;33316;52.298;9.056;2022-08-06T13:17:21;0.20;;;0.10;;
47589;SDS011;33316;52.298;9.056;2022-08-06T13:19:56;0.32;;;0.00;;
47589;SDS011;33316;52.298;9.056;2022-08-06T13:22:25;0.20;;;0.00;;
47589;SDS011;33316;52.298;9.056;2022-08-06T13:25:11;1.20;;;0.10;;
47589;SDS011;33316;52.298;9.056;2022-08-06T13:27:38;0.20;;;0.10;;
47589;SDS011;33316;52.298;9.056;2022-08-06T13:30:06;0.57;;;0.10;;
47589;SDS011;33316;52.298;9.056;2022-08-06T13:32:33;0.10;;;0.00;;
47589;SDS011;33316;52.298;9.056;2022-08-06T13:35:03;0.22;;;0.10;;
47589;SDS011;33316;52.298;9.056;2022-08-06T13:37:45;0.05;;;0.00;;
47589;SDS011;33316;52.298;9.056;2022-08-06T13:40:15;0.30;;;0.08;;
47589;SDS011;33316;52.298;9.056;2022-08-06T13:45:18;0.57;;;0.10;;
47589;SDS011;33316;52.298;9.056;2022-08-06T13:47:47;0.25;;;0.00;;
47589;SDS011;33316;52.298;9.056;2022-08-06T13:50:20;0.40;;;0.10;;
47589;SDS011;33316;52.298;9.056;2022-08-06T13:52:46;0.70;;;0.00;;
47589;SDS011;33316;52.298;9.056;2022-08-06T13:55:12;0.40;;;0.10;;
47589;SDS011;33316;52.298;9.056;2022-08-06T13:57:38;0.52;;;0.10;;
47589;SDS011;33316;52.298;9.056;2022-08-06T14:00:04;0.10;;;0.10;;
47589;SDS011;33316;52.298;9.056;2022-08-06T14:02:34;0.55;;;0.00;;
47589;SDS011;33316;52.298;9.056;2022-08-06T14:05:00;0.15;;;0.00;;
47589;SDS011;33316;52.298;9.056;2022-08-06T14:07:26;0.35;;;0.10;;
47589;SDS011;33316;52.298;9.056;2022-08-06T14:09:51;0.08;;;0.00;;
47589;SDS011;33316;52.298;9.056;2022-08-06T14:12:17;0.75;;;0.10;;
47589;SDS011;33316;52.298;9.056;2022-08-06T14:14:42;0.93;;;0.08;;
47589;SDS011;33316;52.298;9.056;2022-08-06T14:17:08;0.15;;;0.00;;
47589;SDS011;33316;52.298;9.056;2022-08-06T14:19:33;0.22;;;0.05;;
47589;SDS011;33316;52.298;9.056;2022-08-06T14:21:59;0.10;;;0.10;;
47589;SDS011;33316;52.298;9.056;2022-08-06T14:24:24;0.10;;;0.00;;
47589;SDS011;33316;52.298;9.056;2022-08-06T14:26:50;0.17;;;0.00;;
47589;SDS011;33316;52.298;9.056;2022-08-06T14:29:16;0.20;;;0.00;;
47589;SDS011;33316;52.298;9.056;2022-08-06T14:31:41;0.10;;;0.00;;
47589;SDS011;33316;52.298;9.056;2022-08-06T14:34:07;0.38;;;0.10;;
47589;SDS011;33316;52.298;9.056;2022-08-06T14:36:32;1.65;;;0.85;;
47589;SDS011;33316;52.298;9.056;2022-08-06T14:38:58;0.98;;;0.60;;
47589;SDS011;33316;52.298;9.056;2022-08-06T14:41:24;0.25;;;0.10;;
47589;SDS011;33316;52.298;9.056;2022-08-06T14:44:08;0.10;;;0.00;;
47589;SDS011;33316;52.298;9.056;2022-08-06T14:46:54;0.00;;;0.00;;
47589;SDS011;33316;52.298;9.056;2022-08-06T14:49:19;0.55;;;0.10;;
47589;SDS011;33316;52.298;9.056;2022-08-06T14:51:45;0.63;;;0.10;;
47589;SDS011;33316;52.298;9.056;2022-08-06T14:54:11;0.10;;;0.00;;
47589;SDS011;33316;52.298;9.056;2022-08-06T14:56:37;0.10;;;0.00;;
47589;SDS011;33316;52.298;9.056;2022-08-06T14:59:02;0.10;;;0.00;;
47589;SDS011;33316;52.298;9.056;2022-08-06T15:01:28;0.20;;;0.00;;
47589;SDS011;33316;52.298;9.056;2022-08-06T15:03:53;0.43;;;0.00;;
47589;SDS011;33316;52.298;9.056;2022-08-06T15:06:19;0.03;;;0.00;;
47589;SDS011;33316;52.298;9.056;2022-08-06T15:08:44;0.10;;;0.00;;
47589;SDS011;33316;52.298;9.056;2022-08-06T15:11:10;0.47;;;0.10;;
47589;SDS011;33316;52.298;9.056;2022-08-06T15:13:35;0.10;;;0.03;;
47589;SDS011;33316;52.298;9.056;2022-08-06T15:16:01;0.17;;;0.03;;
47589;SDS011;33316;52.298;9.056;2022-08-06T15:18:27;0.25;;;0.03;;
47589;SDS011;33316;52.298;9.056;2022-08-06T15:20:52;0.00;;;0.00;;
47589;SDS011;33316;52.298;9.056;2022-08-06T15:23:18;0.52;;;0.00;;
47589;SDS011;33316;52.298;9.056;2022-08-06T15:25:44;0.20;;;0.00;;
47589;SDS011;33316;52.298;9.056;2022-08-06T15:28:09;0.32;;;0.08;;
47589;SDS011;33316;52.298;9.056;2022-08-06T15:30:35;0.10;;;0.00;;
47589;SDS011;33316;52.298;9.056;2022-08-06T15:33:01;0.30;;;0.10;;
47589;SDS011;33316;52.298;9.056;2022-08-06T15:35:26;0.10;;;0.00;;
47589;SDS011;33316;52.298;9.056;2022-08-06T15:37:52;0.22;;;0.10;;
47589;SDS011;33316;52.298;9.056;2022-08-06T15:40:18;0.00;;;0.00;;
47589;SDS011;33316;52.298;9.056;2022-08-06T15:42:44;0.10;;;0.00;;
47589;SDS011;33316;52.298;9.056;2022-08-06T15:45:10;0.10;;;0.00;;
47589;SDS011;33316;52.298;9.056;2022-08-06T15:47:38;0.65;;;0.13;;
47589;SDS011;33316;52.298;9.056;2022-08-06T15:50:04;0.45;;;0.10;;
47589;SDS011;33316;52.298;9.056;2022-08-06T15:52:30;0.80;;;0.10;;
47589;SDS011;33316;52.298;9.056;2022-08-06T15:54:57;0.05;;;0.00;;
47589;SDS011;33316;52.298;9.056;2022-08-06T15:57:22;0.30;;;0.00;;
47589;SDS011;33316;52.298;9.056;2022-08-06T15:59:48;0.20;;;0.00;;
47589;SDS011;33316;52.298;9.056;2022-08-06T16:02:14;0.20;;;0.10;;
47589;SDS011;33316;52.298;9.056;2022-08-06T16:04:39;0.00;;;0.00;;
47589;SDS011;33316;52.298;9.056;2022-08-06T16:07:05;0.38;;;0.10;;
47589;SDS011;33316;52.298;9.056;2022-08-06T16:09:32;0.35;;;0.00;;
47589;SDS011;33316;52.298;9.056;2022-08-06T16:11:59;1.42;;;0.00;;
47589;SDS011;33316;52.298;9.056;2022-08-06T16:14:25;0.55;;;0.15;;
47589;SDS011;33316;52.298;9.056;2022-08-06T16:16:51;0.35;;;0.10;;